• Join FlightAware (Why Join?)
  • Login
  • US Flag 
Rudolph Flight #1: Arrived! 
07:24AM EST


 

Airport Tracker/Info


-or-


 

Live Flight TrackerFlight Track Log ✈ SWA3265 ✈ 21-Apr-2012 ✈ KMSP - KPHX

Flight Track Log - Related Links

Times and Time Zones

All times are in EDT time to prevent confusion due to time zone crossing. See the SWA3265 flight status page for this flight to view local times or setup timezone preferences in your user account.

Time Position Orientation Groundspeed Altitude Reporting Facility
EDT Latitude Longitude Course Direction KTS MPH feet Rate Location/Type
11:34AM 44.8528 -93.2331 196° South 167 192 1,900  Level FAA TRACON SMA TRACON (SMA)
11:35AM 44.8175 -93.2472 211° Southwest 204 235 3,500 2,400 Climbing FAA TRACON SMA TRACON (SMA)
11:36AM 44.7861 -93.2739 230° Southwest 216 249 5,100 2,700 Climbing FAA TRACON SMA TRACON (SMA)
11:36AM 44.7558 -93.3244 241° Southwest 253 291 7,100 2,880 Climbing FAA TRACON SMA TRACON (SMA)
11:37AM 44.7308 -93.3872 241° Southwest 267 307 8,900 2,460 Climbing FAA TRACON SMA TRACON (SMA)
11:38AM 44.7072 -93.4461 241° Southwest 282 325 10,400 1,680 Climbing FAA TRACON SMA TRACON (SMA)
11:38AM 44.6769 -93.5222 240° Southwest 332 382 11,200 1,860 Climbing FAA TRACON SMA TRACON (SMA)
11:39AM 44.6478 -93.5939 241° Southwest 344 396 12,900 2,700 Climbing FAA TRACON SMA TRACON (SMA)
11:40AM 44.6156 -93.6750 240° Southwest 344 396 14,800 2,460 Climbing FAA TRACON SMA TRACON (SMA)
11:40AM 44.5783 -93.7658 242° Southwest 352 405 16,400 2,100 Climbing FAA TRACON SMA TRACON (SMA)
11:41AM 44.5528 -93.8319 241° Southwest 357 411 17,600 1,680 Climbing FAA TRACON SMA TRACON (SMA)
11:42AM 44.5186 -93.9183 241° Southwest 368 423 18,600 1,620 Climbing FAA TRACON SMA TRACON (SMA)
11:42AM 44.4833 -94.0081 242° Southwest 381 438 19,800 1,980 Climbing FAA TRACON SMA TRACON (SMA)
11:43AM 44.4492 -94.0978 241° Southwest 377 434 21,300 1,800 Climbing FAA TRACON SMA TRACON (SMA)
11:44AM 44.4175 -94.1778 240° Southwest 381 438 22,200 1,320 Climbing FAA TRACON SMA TRACON (SMA)
11:44AM 44.3803 -94.2692 241° Southwest 391 450 23,100 1,380 Climbing FAA TRACON SMA TRACON (SMA)
11:45AM 44.3353 -94.3825 239° Southwest 394 453 24,500 1,200 Climbing FAA TRACON SMA TRACON (SMA)
11:46AM 44.2972 -94.4711 241° Southwest 396 456 25,100 1,080 Climbing Minneapolis Center
11:47AM 44.2417 -94.6092 241° Southwest 408 470 26,300 1,560 Climbing Minneapolis Center
11:48AM 44.1817 -94.7586 241° Southwest 408 470 28,300 1,680 Climbing Minneapolis Center
11:49AM 44.1281 -94.8933 240° Southwest 408 470 29,700 1,440 Climbing Minneapolis Center
11:50AM 44.0719 -95.0275 240° Southwest 403 464 31,200 1,140 Climbing Minneapolis Center
11:51AM 44.0244 -95.1417 241° Southwest 403 464 32,000 840 Climbing Minneapolis Center
11:52AM 43.9703 -95.2756 240° Southwest 403 464 32,900 960 Climbing Minneapolis Center
11:53AM 43.9161 -95.4064 239° Southwest 398 458 34,000 960 Climbing Minneapolis Center
11:54AM 43.8617 -95.5342 240° Southwest 398 458 34,900 720 Climbing Minneapolis Center
11:55AM 43.8069 -95.6675 239° Southwest 398 458 35,500 540 Climbing Minneapolis Center
11:56AM 43.7458 -95.8086 240° Southwest 398 458 36,100 240 Climbing Minneapolis Center
11:57AM 43.6886 -95.9442 240° Southwest 398 458 36,000 -60 Descending Minneapolis Center
11:58AM 43.6336 -96.0736 240° Southwest 398 458 36,000  Level Minneapolis Center
11:59AM 43.5783 -96.2031 239° Southwest 398 458 36,000  Level Minneapolis Center
12:00PM 43.5342 -96.3042 240° Southwest 398 458 36,000  Level Minneapolis Center
12:01PM 43.4764 -96.4414 240° Southwest 398 458 36,000  Level Minneapolis Center
12:02PM 43.4206 -96.5728 239° Southwest 398 458 36,000  Level Minneapolis Center
12:03PM 43.3650 -96.6983 239° Southwest 393 452 36,000  Level Minneapolis Center
12:04PM 43.3089 -96.8264 239° Southwest 393 452 36,000  Level Minneapolis Center
12:05PM 43.2531 -96.9544 239° Southwest 393 452 36,000  Level Minneapolis Center
12:06PM 43.1922 -97.0931 239° Southwest 398 458 36,000  Level Minneapolis Center
12:07PM 43.1358 -97.2233 239° Southwest 398 458 36,000  Level Minneapolis Center
12:08PM 43.0814 -97.3478 238° Southwest 398 458 36,000  Level Minneapolis Center
12:09PM 43.0250 -97.4717 240° Southwest 398 458 36,000  Level Minneapolis Center
12:10PM 42.9703 -97.5986 238° Southwest 398 458 36,000  Level Minneapolis Center
12:11PM 42.9133 -97.7250 238° Southwest 398 458 36,000  Level Minneapolis Center
12:12PM 42.8631 -97.8347 238° Southwest 398 458 36,000  Level Minneapolis Center
12:13PM 42.8058 -97.9606 235° Southwest 398 458 36,000  Level Minneapolis Center
12:14PM 42.7425 -98.0858 243° Southwest 398 458 36,000  Level Minneapolis Center
12:15PM 42.6928 -98.2203 238° Southwest 398 458 36,000  Level Minneapolis Center
12:16PM 42.6331 -98.3483 238° Southwest 404 465 36,000  Level Minneapolis Center
12:17PM 42.5753 -98.4731 238° Southwest 404 465 36,000  Level Minneapolis Center
12:18PM 42.5175 -98.5978 235° Southwest 404 465 36,000  Level Minneapolis Center
12:19PM 42.4533 -98.7219 227° Southwest 399 459 36,000  Level Minneapolis Center
12:21PM 42.3114 -98.9269 228° Southwest 403 464 36,000  Level Denver Center
12:22PM 42.2353 -99.0425 227° Southwest 409 471 36,000  Level Denver Center
12:23PM 42.1550 -99.1583 228° Southwest 415 478 36,000  Level Denver Center
12:24PM 42.0789 -99.2736 228° Southwest 420 483 36,000  Level Denver Center
12:25PM 41.9986 -99.3917 227° Southwest 420 483 36,000  Level Denver Center
12:26PM 41.9219 -99.5033 227° Southwest 420 483 36,000  Level Denver Center
12:27PM 41.8411 -99.6208 227° Southwest 420 483 36,000  Level Denver Center
12:28PM 41.7547 -99.7469 227° Southwest 429 494 36,000  Level Denver Center
12:29PM 41.6833 -99.8489 228° Southwest 434 499 36,000  Level Denver Center
12:30PM 41.5986 -99.9744 228° Southwest 421 484 36,000  Level Denver Center
12:31PM 41.5214 -100.0875 225° Southwest 421 484 36,000  Level Denver Center
12:32PM 41.4475 -100.1861 227° Southwest 421 484 36,000  Level Denver Center
12:33PM 41.3700 -100.2961 228° Southwest 421 484 36,000  Level Denver Center
12:34PM 41.2847 -100.4203 226° Southwest 421 484 36,000  Level Denver Center
12:35PM 41.2050 -100.5297 226° Southwest 421 484 36,000  Level Denver Center
12:36PM 41.1331 -100.6300 227° Southwest 421 484 36,000  Level Denver Center
12:37PM 41.0492 -100.7506 226° Southwest 421 484 36,000  Level Denver Center
12:38PM 40.9692 -100.8619 227° Southwest 421 484 36,000  Level Denver Center
12:39PM 40.8969 -100.9642 226° Southwest 421 484 36,000  Level Denver Center
12:40PM 40.8108 -101.0839 231° Southwest 421 484 36,000  Level Denver Center
12:41PM 40.7411 -101.1994 232° Southwest 416 479 36,000  Level Denver Center
12:42PM 40.6769 -101.3058 231° Southwest 416 479 36,000  Level Denver Center
12:43PM 40.6050 -101.4233 232° Southwest 416 479 36,000  Level Denver Center
12:44PM 40.5272 -101.5522 231° Southwest 416 479 36,000  Level Denver Center
12:45PM 40.4531 -101.6725 230° Southwest 416 479 36,000  Level Denver Center
12:46PM 40.3864 -101.7753 231° Southwest 411 473 36,000  Level Denver Center
12:47PM 40.3139 -101.8922 231° Southwest 417 480 36,000  Level Denver Center
12:48PM 40.2353 -102.0200 231° Southwest 417 480 36,000  Level Denver Center
12:49PM 40.1606 -102.1389 231° Southwest 417 480 36,000  Level Denver Center
12:50PM 40.0958 -102.2436 232° Southwest 412 474 36,000  Level Denver Center
12:51PM 40.0231 -102.3647 229° Southwest 417 480 36,000  Level Denver Center
12:52PM 39.9417 -102.4889 230° Southwest 417 480 36,000  Level Denver Center
12:53PM 39.8686 -102.6042 232° Southwest 417 480 36,000  Level Denver Center
12:54PM 39.7975 -102.7244 230° Southwest 417 480 36,000  Level Denver Center
12:55PM 39.7300 -102.8281 229° Southwest 417 480 36,000  Level Denver Center
12:56PM 39.6561 -102.9397 231° Southwest 410 472 36,000  Level Denver Center
12:57PM 39.5825 -103.0567 231° Southwest 415 478 36,000  Level Denver Center
12:58PM 39.5108 -103.1706 229° Southwest 415 478 36,000  Level Denver Center
12:59PM 39.4347 -103.2847 230° Southwest 415 478 36,000  Level Denver Center
01:00PM 39.3528 -103.4119 229° Southwest 415 478 36,000  Level Denver Center
01:01PM 39.2786 -103.5225 230° Southwest 415 478 36,000  Level Denver Center
01:02PM 39.2042 -103.6381 229° Southwest 410 472 36,000  Level Denver Center
01:03PM 39.1278 -103.7511 230° Southwest 419 482 36,000  Level Denver Center
01:04PM 39.0553 -103.8636 229° Southwest 419 482 36,000  Level Denver Center
01:05PM 38.9786 -103.9758 230° Southwest 419 482 36,000  Level Denver Center
01:06PM 38.9039 -104.0906 228° Southwest 419 482 36,000  Level Denver Center
01:07PM 38.8350 -104.1889 231° Southwest 419 482 36,000  Level Denver Center
01:08PM 38.7581 -104.3086 228° Southwest 425 489 36,000  Level Denver Center
01:09PM 38.6808 -104.4200 230° Southwest 425 489 36,000  Level Denver Center
01:10PM 38.6058 -104.5339 228° Southwest 419 482 36,000  Level Denver Center
01:11PM 38.5283 -104.6447 230° Southwest 419 482 36,000  Level Denver Center
01:12PM 38.4447 -104.7714 229° Southwest 424 488 36,000  Level Denver Center
01:13PM 38.3672 -104.8844 230° Southwest 429 494 36,100  Climbing Denver Center
01:14PM 38.2894 -105.0025 230° Southwest 439 505 36,000 -60 Descending Denver Center
01:15PM 38.2139 -105.1178 228° Southwest 439 505 36,000  Level Denver Center
01:16PM 38.1419 -105.2194 229° Southwest 439 505 36,100  Climbing Denver Center
01:17PM 38.0578 -105.3422 228° Southwest 434 499 36,000 -60 Descending Denver Center
01:18PM 37.9775 -105.4539 229° Southwest 434 499 36,000  Level Denver Center
01:19PM 37.9075 -105.5575 229° Southwest 434 499 36,000  Level Denver Center
01:20PM 37.8314 -105.6689 228° Southwest 434 499 36,000  Level Denver Center
01:21PM 37.7425 -105.7933 229° Southwest 432 497 36,000  Level Denver Center
01:22PM 37.6681 -105.9014 227° Southwest 426 490 36,000  Level Denver Center
01:23PM 37.5956 -105.9989 229° Southwest 420 483 36,000  Level Denver Center
01:24PM 37.5228 -106.1042 229° Southwest 412 474 36,000  Level Denver Center
01:25PM 37.4461 -106.2169 228° Southwest 412 474 36,000  Level Denver Center
01:26PM 37.3628 -106.3347 227° Southwest 417 480 36,000  Level Denver Center
01:27PM 37.2817 -106.4442 229° Southwest 422 486 36,000  Level Denver Center
01:28PM 37.2150 -106.5406 228° Southwest 422 486 36,000  Level Denver Center
01:29PM 37.1336 -106.6525 229° Southwest 422 486 36,000  Level Denver Center
01:30PM 37.0500 -106.7719 227° Southwest 422 486 36,000  Level Denver Center
01:31PM 36.9706 -106.8781 228° Southwest 422 486 36,000  Level Denver Center
01:32PM 36.9014 -106.9736 227° Southwest 422 486 36,000  Level Denver Center
01:33PM 36.8217 -107.0819 227° Southwest 417 480 36,000  Level Denver Center
01:34PM 36.7356 -107.1978 228° Southwest 417 480 36,000  Level Denver Center
01:35PM 36.6575 -107.3056 227° Southwest 417 480 36,000  Level Denver Center
01:37PM 36.4942 -107.5267 227° Southwest 421 484 36,000  Level Albuquerque Center
01:38PM 36.4061 -107.6425 228° Southwest 421 484 36,000  Level Albuquerque Center
01:39PM 36.3286 -107.7481 228° Southwest 421 484 36,000  Level Albuquerque Center
01:40PM 36.2553 -107.8481 227° Southwest 421 484 36,000  Level Albuquerque Center
01:41PM 36.1756 -107.9531 226° Southwest 421 484 36,000  Level Albuquerque Center
01:42PM 36.0872 -108.0681 227° Southwest 421 484 36,000  Level Albuquerque Center
01:43PM 36.0075 -108.1753 227° Southwest 421 484 36,000  Level Albuquerque Center
01:44PM 35.9358 -108.2694 227° Southwest 421 484 36,000  Level Albuquerque Center
01:45PM 35.8556 -108.3761 227° Southwest 421 484 36,000  Level Albuquerque Center
01:46PM 35.7669 -108.4928 227° Southwest 426 490 36,000  Level Albuquerque Center
01:47PM 35.6867 -108.5989 226° Southwest 426 490 36,000  Level Albuquerque Center
01:48PM 35.6061 -108.7025 226° Southwest 421 484 36,000  Level Albuquerque Center
01:49PM 35.5342 -108.7956 226° Southwest 421 484 36,000  Level Albuquerque Center
01:50PM 35.4536 -108.8989 227° Southwest 421 484 36,000  Level Albuquerque Center
01:51PM 35.3664 -109.0142 225° Southwest 421 484 36,000  Level Albuquerque Center
01:52PM 35.2836 -109.1169 227° Southwest 421 484 36,000  Level Albuquerque Center
01:53PM 35.2133 -109.2094 227° Southwest 421 484 36,000  Level Albuquerque Center
01:54PM 35.1325 -109.3142 226° Southwest 421 484 36,000  Level Albuquerque Center
01:55PM 35.0428 -109.4261 227° Southwest 421 484 36,000  Level Albuquerque Center
01:56PM 34.9617 -109.5306 226° Southwest 421 484 36,000  Level Albuquerque Center
01:57PM 34.8892 -109.6222 226° Southwest 421 484 36,000  Level Albuquerque Center
01:58PM 34.8078 -109.7264 228° Southwest 421 484 36,000  Level Albuquerque Center
01:59PM 34.7242 -109.8378 240° Southwest 421 484 36,000  Level Albuquerque Center
02:00PM 34.6672 -109.9597 246° West 421 484 36,000  Level Albuquerque Center
02:01PM 34.6250 -110.0769 246° West 418 481 36,000  Level Albuquerque Center
02:02PM 34.5783 -110.2017 245° Southwest 418 481 36,000 -600 Level Albuquerque Center
02:03PM 34.5250 -110.3408 249° West 413 475 34,900 -1,500 Descending Albuquerque Center
02:04PM 34.4864 -110.4628 246° West 425 489 33,000 -1,500 Descending Albuquerque Center
02:05PM 34.4414 -110.5847 245° Southwest 419 482 32,000 -1,800 Descending Albuquerque Center
02:06PM 34.3919 -110.7111 240° Southwest 414 476 29,400 -2,100 Descending Albuquerque Center
02:07PM 34.3300 -110.8392 225° Southwest 414 476 27,900 -1,680 Descending Albuquerque Center
02:08PM 34.2564 -110.9292 227° Southwest 399 459 26,100 -2,040 Descending Albuquerque Center
02:09PM 34.1803 -111.0264 225° Southwest 393 452 23,900 -2,100 Descending Albuquerque Center
02:10PM 34.1089 -111.1133 227° Southwest 388 447 21,900 -2,100 Descending Albuquerque Center
02:11PM 34.0369 -111.2053 228° Southwest 383 441 19,800 -1,860 Descending Albuquerque Center
02:12PM 33.9869 -111.2731 227° Southwest 372 428 18,200 -1,800 Descending Albuquerque Center
02:13PM 33.9150 -111.3675 232° Southwest 355 409 16,200 -1,740 Descending Albuquerque Center
02:14PM 33.8500 -111.4667 234° Southwest 307 353 14,500 -1,560 Descending Phoenix TRACON
02:15PM 33.8000 -111.5500 234° Southwest 303 349 12,900 -1,680 Descending Phoenix TRACON
02:16PM 33.7500 -111.6333 244° Southwest 300 345 11,200 -1,440 Descending Phoenix TRACON
02:17PM 33.7167 -111.7167 234° Southwest 296 341 10,000 -600 Descending Phoenix TRACON
02:18PM 33.6667 -111.8000 234° Southwest 279 321 10,000 -480 Level Phoenix TRACON
02:19PM 33.6167 -111.8833 239° Southwest 290 334 9,100 -540 Descending Phoenix TRACON
02:20PM 33.5833 -111.9500 244° Southwest 250 288 9,000 -780 Descending Phoenix TRACON
02:21PM 33.5500 -112.0333 253° West 252 290 7,700 -1,200 Descending Phoenix TRACON
02:22PM 33.5333 -112.1000 270° West 246 283 6,700 -960 Descending Phoenix TRACON
02:23PM 33.5333 -112.1833 196° South 205 236 5,800 -1,320 Descending Phoenix TRACON
02:24PM 33.4833 -112.2000 121° Southeast 183 211 4,100 -1,320 Descending Phoenix TRACON
02:25PM 33.4667 -112.1667 107° East 170 196 3,200 -840 Descending Phoenix TRACON
02:26PM 33.4500 -112.1000 107° East 169 194 2,500 -720 Descending Phoenix TRACON